createdAt,value
2022-11-20T00:01:52.815Z,98616.63
2022-11-20T00:04:19.261Z,98613.03
2022-11-20T00:06:45.665Z,98615.84
2022-11-20T00:09:12.108Z,98611.50
2022-11-20T00:11:38.578Z,98616.34
2022-11-20T00:14:04.965Z,98625.22
2022-11-20T00:16:31.567Z,98630.44
2022-11-20T00:18:58.067Z,98629.13
2022-11-20T00:21:24.462Z,98615.31
2022-11-20T00:23:50.847Z,98618.63
2022-11-20T00:26:17.235Z,98620.59
2022-11-20T00:28:43.651Z,98618.44
2022-11-20T00:31:10.093Z,98620.66
2022-11-20T00:33:36.462Z,98626.56
2022-11-20T00:36:02.992Z,98642.75
2022-11-20T00:38:29.490Z,98645.91
2022-11-20T00:40:55.817Z,98649.91
2022-11-20T00:43:22.317Z,98650.34
2022-11-20T00:45:48.756Z,98656.66
2022-11-20T00:48:15.118Z,98657.97
2022-11-20T00:50:41.468Z,98659.00
2022-11-20T00:53:07.843Z,98666.72
2022-11-20T00:55:34.199Z,98663.59
2022-11-20T00:58:04.408Z,98672.47
2022-11-20T01:00:31.123Z,98660.47
2022-11-20T01:02:57.474Z,98653.09
2022-11-20T01:05:23.840Z,98655.22
2022-11-20T01:07:50.474Z,98668.22
2022-11-20T01:10:17.016Z,98667.59
2022-11-20T01:12:43.355Z,98665.03
2022-11-20T01:15:09.735Z,98677.28
2022-11-20T01:17:36.110Z,98682.97
2022-11-20T01:20:02.519Z,98683.66
2022-11-20T01:22:28.885Z,98670.66
2022-11-20T01:24:55.227Z,98669.50
2022-11-20T01:27:21.849Z,98667.97
2022-11-20T01:29:48.251Z,98657.84
2022-11-20T01:32:14.635Z,98666.53
2022-11-20T01:34:41.099Z,98659.72
2022-11-20T01:37:07.488Z,98662.28
2022-11-20T01:39:33.825Z,98656.41
2022-11-20T01:42:00.290Z,98656.22
2022-11-20T01:44:26.715Z,98647.56
2022-11-20T01:46:53.099Z,98660.47
2022-11-20T01:49:19.968Z,98649.16
2022-11-20T01:51:46.561Z,98651.78
2022-11-20T01:54:12.902Z,98654.53
2022-11-20T01:56:39.200Z,98654.81
2022-11-20T01:59:05.620Z,98653.19
2022-11-20T02:01:32.054Z,98661.09
2022-11-20T02:03:58.600Z,98666.25
2022-11-20T02:06:25.303Z,98668.66
2022-11-20T02:08:52.033Z,98672.22
2022-11-20T02:11:18.459Z,98669.59
2022-11-20T02:13:45.191Z,98661.72
2022-11-20T02:16:11.597Z,98664.31
2022-11-20T02:18:38.175Z,98669.59
2022-11-20T02:21:04.899Z,98664.22
2022-11-20T02:23:31.617Z,98669.34
2022-11-20T02:25:58.054Z,98678.94
2022-11-20T02:28:24.573Z,98681.63
2022-11-20T02:30:50.964Z,98676.50
2022-11-20T02:33:17.604Z,98680.25
2022-11-20T02:35:44.181Z,98661.56
2022-11-20T02:38:10.779Z,98656.97
2022-11-20T02:40:37.177Z,98663.84
2022-11-20T02:43:03.603Z,98663.72
2022-11-20T02:45:30.063Z,98666.69
2022-11-20T02:47:56.456Z,98665.06
2022-11-20T02:50:22.809Z,98664.31
2022-11-20T02:52:49.158Z,98665.94
2022-11-20T02:55:15.748Z,98666.88
2022-11-20T02:57:42.136Z,98660.09
2022-11-20T03:00:08.458Z,98647.88
2022-11-20T03:02:34.866Z,98642.06
2022-11-20T03:05:01.397Z,98643.53
2022-11-20T03:07:27.839Z,98640.25
2022-11-20T03:09:54.451Z,98633.13
2022-11-20T03:12:20.883Z,98615.88
2022-11-20T03:14:52.575Z,98624.44
2022-11-20T03:17:19.512Z,98613.09
2022-11-20T03:19:45.914Z,98606.22
2022-11-20T03:22:12.463Z,98606.19
2022-11-20T03:24:39.035Z,98602.72
2022-11-20T03:27:05.398Z,98606.19
2022-11-20T03:29:31.817Z,98603.63
2022-11-20T03:31:58.225Z,98604.47
2022-11-20T03:34:24.665Z,98603.56
2022-11-20T03:36:51.008Z,98613.50
2022-11-20T03:39:17.388Z,98610.69
2022-11-20T03:41:46.206Z,98608.44
2022-11-20T03:44:12.558Z,98614.78
2022-11-20T03:46:39.134Z,98614.22
2022-11-20T03:49:05.573Z,98611.56
2022-11-20T03:51:31.979Z,98611.75
2022-11-20T03:53:58.333Z,98604.69
2022-11-20T03:56:24.955Z,98610.22
2022-11-20T03:58:51.317Z,98609.81
2022-11-20T04:01:17.820Z,98610.47
2022-11-20T04:03:44.409Z,98610.66
2022-11-20T04:06:10.765Z,98601.59
2022-11-20T04:08:37.108Z,98595.56
2022-11-20T04:11:03.667Z,98587.13
2022-11-20T04:13:30.228Z,98593.94
2022-11-20T04:15:56.559Z,98581.94
2022-11-20T04:18:22.963Z,98588.34
2022-11-20T04:20:49.333Z,98593.28
2022-11-20T04:23:15.710Z,98578.72
2022-11-20T04:25:42.123Z,98582.03
2022-11-20T04:28:08.435Z,98582.28
2022-11-20T04:30:34.806Z,98577.72
2022-11-20T04:33:01.199Z,98573.47
2022-11-20T04:35:27.629Z,98572.63
2022-11-20T04:37:54.099Z,98571.69
2022-11-20T04:40:20.459Z,98572.03
2022-11-20T04:42:46.833Z,98569.63
2022-11-20T04:45:13.181Z,98558.69
2022-11-20T04:47:39.962Z,98552.38
2022-11-20T04:50:06.425Z,98544.88
2022-11-20T04:52:32.861Z,98539.53
2022-11-20T04:54:59.262Z,98548.03
2022-11-20T04:57:25.634Z,98533.53
2022-11-20T04:59:52.025Z,98531.88
2022-11-20T05:02:21.283Z,98536.25
2022-11-20T05:04:47.674Z,98543.47
2022-11-20T05:07:14.059Z,98533.59
2022-11-20T05:09:40.451Z,98536.09
2022-11-20T05:12:07.809Z,98542.22
2022-11-20T05:14:34.195Z,98551.88
2022-11-20T05:17:00.798Z,98551.41
2022-11-20T05:19:27.169Z,98555.28
2022-11-20T05:21:53.518Z,98559.44
2022-11-20T05:24:19.927Z,98549.94
2022-11-20T05:26:46.295Z,98555.28
2022-11-20T05:29:12.714Z,98555.38
2022-11-20T05:31:39.104Z,98560.69
2022-11-20T05:34:05.496Z,98553.22
2022-11-20T05:36:32.049Z,98550.63
2022-11-20T05:39:01.832Z,98568.63
2022-11-20T05:41:28.450Z,98570.66
2022-11-20T05:43:55.287Z,98566.16
2022-11-20T05:46:27.743Z,98574.66
2022-11-20T05:48:55.322Z,98574.56
2022-11-20T05:51:21.931Z,98571.25
2022-11-20T05:53:48.965Z,98567.19
2022-11-20T05:56:15.545Z,98580.06
2022-11-20T05:58:41.978Z,98571.31
2022-11-20T06:01:08.407Z,98577.97
2022-11-20T06:03:34.771Z,98578.81
2022-11-20T06:06:01.290Z,98574.63
2022-11-20T06:08:27.824Z,98581.47
2022-11-20T06:10:54.204Z,98581.56
2022-11-20T06:13:20.578Z,98580.19
2022-11-20T06:15:46.949Z,98585.34
2022-11-20T06:18:13.347Z,98584.22
2022-11-20T06:20:42.173Z,98581.56
2022-11-20T06:23:08.678Z,98587.84
2022-11-20T06:25:35.108Z,98583.44
2022-11-20T06:28:01.494Z,98591.28
2022-11-20T06:30:27.871Z,98588.13
2022-11-20T06:32:54.314Z,98585.25
2022-11-20T06:35:20.984Z,98594.16
2022-11-20T06:37:47.379Z,98606.03
2022-11-20T06:40:13.881Z,98600.66
2022-11-20T06:42:40.337Z,98610.09
2022-11-20T06:45:06.729Z,98615.25
2022-11-20T06:47:33.127Z,98620.69
2022-11-20T06:50:00.502Z,98626.41
2022-11-20T06:52:26.846Z,98624.75
2022-11-20T06:54:53.218Z,98633.28
2022-11-20T06:57:19.836Z,98621.97
2022-11-20T06:59:46.182Z,98635.34
2022-11-20T07:02:12.631Z,98633.41
2022-11-20T07:04:39.045Z,98638.47
2022-11-20T07:07:05.447Z,98638.47
2022-11-20T07:09:31.844Z,98633.28
2022-11-20T07:11:58.343Z,98637.56
2022-11-20T07:14:24.772Z,98646.13
2022-11-20T07:16:51.153Z,98646.94
2022-11-20T07:19:17.515Z,98646.03
2022-11-20T07:21:43.948Z,98642.47
2022-11-20T07:24:10.709Z,98643.28
2022-11-20T07:26:37.101Z,98645.94
2022-11-20T07:29:03.563Z,98648.72
2022-11-20T07:31:30.099Z,98645.03
2022-11-20T07:33:56.522Z,98651.03
2022-11-20T07:36:23.092Z,98653.72
2022-11-20T07:38:49.448Z,98656.94
2022-11-20T07:41:15.918Z,98656.94
2022-11-20T07:43:42.276Z,98659.84
2022-11-20T07:46:08.616Z,98666.19
2022-11-20T07:48:35.079Z,98668.56
2022-11-20T07:51:01.473Z,98666.72
2022-11-20T07:53:27.834Z,98667.44
2022-11-20T07:55:54.251Z,98660.34
2022-11-20T07:58:20.702Z,98664.47
2022-11-20T08:00:47.169Z,98672.66
2022-11-20T08:03:14.550Z,98674.72
2022-11-20T08:05:40.979Z,98672.75
2022-11-20T08:08:07.401Z,98669.47
2022-11-20T08:10:34.155Z,98671.28
2022-11-20T08:13:00.549Z,98668.72
2022-11-20T08:15:26.905Z,98663.63
2022-11-20T08:18:15.790Z,98662.78
2022-11-20T08:20:39.772Z,98665.38
2022-11-20T08:23:06.455Z,98667.81
2022-11-20T08:25:32.837Z,98661.56
2022-11-20T08:28:00.314Z,98671.75
2022-11-20T08:30:27.240Z,98666.72
2022-11-20T08:32:53.770Z,98675.97
2022-11-20T08:35:20.168Z,98671.53
2022-11-20T08:37:46.696Z,98678.00
2022-11-20T08:40:16.966Z,98666.63
2022-11-20T08:42:46.149Z,98670.34
2022-11-20T08:45:12.609Z,98668.34
2022-11-20T08:47:38.987Z,98664.63
2022-11-20T08:50:05.347Z,98669.28
2022-11-20T08:52:33.488Z,98670.09
2022-11-20T08:55:02.052Z,98674.34
2022-11-20T08:57:28.547Z,98680.09
2022-11-20T09:00:10.438Z,98670.50
2022-11-20T09:02:37.024Z,98671.19
2022-11-20T09:05:03.468Z,98663.69
2022-11-20T09:07:30.137Z,98661.78
2022-11-20T09:12:43.191Z,98667.50
2022-11-20T09:15:09.553Z,98662.88
2022-11-20T09:17:36.180Z,98657.63
2022-11-20T09:20:02.577Z,98651.94
2022-11-20T09:22:28.990Z,98654.03
2022-11-20T09:24:55.360Z,98647.94
2022-11-20T09:27:22.003Z,98655.00
2022-11-20T09:29:48.384Z,98656.78
2022-11-20T09:32:14.806Z,98660.03
2022-11-20T09:34:41.384Z,98653.06
2022-11-20T09:37:07.986Z,98655.00
2022-11-20T09:39:34.596Z,98654.03
2022-11-20T09:42:01.027Z,98658.13
2022-11-20T09:44:27.479Z,98651.03
2022-11-20T09:46:53.892Z,98648.56
2022-11-20T09:49:20.489Z,98646.56
2022-11-20T09:51:47.241Z,98647.31
2022-11-20T09:54:13.682Z,98634.50
2022-11-20T09:56:40.102Z,98639.34
2022-11-20T09:59:06.752Z,98633.41
2022-11-20T10:01:33.114Z,98631.06
2022-11-20T10:03:59.719Z,98629.25
2022-11-20T10:06:26.237Z,98622.09
2022-11-20T10:08:52.723Z,98621.09
2022-11-20T10:11:19.255Z,98624.59
2022-11-20T10:13:45.612Z,98620.03
2022-11-20T10:16:12.035Z,98621.44
2022-11-20T10:18:40.739Z,98618.44
2022-11-20T10:21:07.182Z,98611.63
2022-11-20T10:23:33.766Z,98611.72
2022-11-20T10:26:00.333Z,98620.13
2022-11-20T10:28:26.713Z,98606.72
2022-11-20T10:30:53.086Z,98611.25
2022-11-20T10:33:19.548Z,98606.69
2022-11-20T10:35:45.907Z,98611.41
2022-11-20T10:38:12.327Z,98613.75
2022-11-20T10:40:38.769Z,98612.94
2022-11-20T10:43:05.182Z,98626.88
2022-11-20T10:45:31.601Z,98617.09
2022-11-20T10:47:58.048Z,98618.41
2022-11-20T10:50:24.486Z,98615.72
2022-11-20T10:52:50.905Z,98615.47
2022-11-20T10:55:17.273Z,98613.28
2022-11-20T10:57:43.736Z,98608.81
2022-11-20T11:00:10.241Z,98598.91
2022-11-20T11:02:36.675Z,98594.88
2022-11-20T11:05:03.068Z,98594.16
2022-11-20T11:07:29.688Z,98594.72
2022-11-20T11:09:56.191Z,98586.53
2022-11-20T11:12:22.973Z,98593.38
2022-11-20T11:14:49.343Z,98594.91
2022-11-20T11:17:15.709Z,98584.59
2022-11-20T11:19:42.089Z,98575.34
2022-11-20T11:22:08.535Z,98586.22
2022-11-20T11:24:42.273Z,98586.34
2022-11-20T11:27:13.736Z,98588.09
2022-11-20T11:29:43.550Z,98584.75
2022-11-20T11:32:10.399Z,98584.69
2022-11-20T11:34:37.150Z,98586.28
2022-11-20T11:37:03.957Z,98582.66
2022-11-20T11:39:30.440Z,98580.84
2022-11-20T11:41:56.866Z,98574.59
2022-11-20T11:44:23.258Z,98573.41
2022-11-20T11:46:50.098Z,98570.78
2022-11-20T11:49:16.478Z,98580.31
2022-11-20T11:51:42.869Z,98574.91
2022-11-20T11:54:09.290Z,98568.78
2022-11-20T11:56:35.643Z,98567.78
2022-11-20T11:59:01.982Z,98554.38
2022-11-20T12:01:28.342Z,98555.28
2022-11-20T12:03:55.257Z,98549.94
2022-11-20T12:06:21.975Z,98550.72
2022-11-20T12:08:48.518Z,98549.63
2022-11-20T12:11:15.970Z,98550.00
2022-11-20T12:13:42.711Z,98545.38
2022-11-20T12:16:09.857Z,98549.63
2022-11-20T12:18:36.250Z,98542.47
2022-11-20T12:21:03.015Z,98545.88
2022-11-20T12:23:29.491Z,98549.75
2022-11-20T12:25:56.068Z,98545.31
2022-11-20T12:28:23.043Z,98551.91
2022-11-20T12:30:50.116Z,98555.69
2022-11-20T12:33:16.649Z,98552.69
2022-11-20T12:35:47.094Z,98550.84
2022-11-20T12:38:13.792Z,98542.59
2022-11-20T12:40:40.370Z,98548.56
2022-11-20T12:43:06.960Z,98548.88
2022-11-20T12:45:33.456Z,98539.16
2022-11-20T12:47:59.929Z,98536.41
2022-11-20T12:50:26.576Z,98530.38
2022-11-20T12:52:53.934Z,98523.31
2022-11-20T12:55:20.815Z,98524.31
2022-11-20T12:57:48.142Z,98525.28
2022-11-20T13:00:15.025Z,98520.84
2022-11-20T13:02:41.869Z,98519.22
2022-11-20T13:05:08.834Z,98521.75
2022-11-20T13:07:35.801Z,98509.38
2022-11-20T13:10:02.395Z,98517.91
2022-11-20T13:12:28.827Z,98513.56
2022-11-20T13:14:55.254Z,98504.00
2022-11-20T13:17:21.951Z,98509.34
2022-11-20T13:19:48.379Z,98505.50
2022-11-20T13:22:16.284Z,98510.22
2022-11-20T13:24:42.810Z,98508.16
2022-11-20T13:27:09.820Z,98511.03
2022-11-20T13:29:36.377Z,98507.72
2022-11-20T13:32:07.581Z,98505.25
2022-11-20T13:34:34.625Z,98500.72
2022-11-20T13:37:01.141Z,98505.03
2022-11-20T13:39:27.538Z,98505.16
2022-11-20T13:41:54.123Z,98498.09
2022-11-20T13:44:21.366Z,98507.72
2022-11-20T13:46:47.989Z,98501.50
2022-11-20T13:49:14.913Z,98493.69
2022-11-20T13:51:41.663Z,98489.56
2022-11-20T13:54:08.047Z,98487.53
2022-11-20T13:56:34.397Z,98488.81
2022-11-20T13:59:04.892Z,98489.78
2022-11-20T14:01:32.146Z,98486.56
2022-11-20T14:04:05.987Z,98478.06
2022-11-20T14:06:33.745Z,98471.00
2022-11-20T14:09:00.660Z,98484.84
2022-11-20T14:11:29.748Z,98482.25
2022-11-20T14:13:56.523Z,98478.00
2022-11-20T14:16:23.423Z,98484.72
2022-11-20T14:18:50.425Z,98479.69
2022-11-20T14:21:19.996Z,98474.97
2022-11-20T14:23:46.667Z,98470.16
2022-11-20T14:26:13.658Z,98475.16
2022-11-20T14:28:40.533Z,98469.69
2022-11-20T14:31:07.596Z,98465.81
2022-11-20T14:33:34.269Z,98467.28
2022-11-20T14:36:02.229Z,98459.31
2022-11-20T14:38:29.069Z,98477.09
2022-11-20T14:40:55.998Z,98475.09
2022-11-20T14:43:22.871Z,98471.00
2022-11-20T14:45:49.773Z,98468.88
2022-11-20T14:48:16.978Z,98476.44
2022-11-20T14:50:46.467Z,98468.75
2022-11-20T14:53:16.533Z,98470.59
2022-11-20T14:55:42.932Z,98466.50
2022-11-20T14:58:09.850Z,98469.00
2022-11-20T15:00:36.334Z,98472.00
2022-11-20T15:03:02.715Z,98471.28
2022-11-20T15:05:29.716Z,98470.13
2022-11-20T15:07:56.926Z,98467.28
2022-11-20T15:10:24.771Z,98474.72
2022-11-20T15:12:51.350Z,98474.06
2022-11-20T15:15:17.830Z,98471.66
2022-11-20T15:17:47.015Z,98459.44
2022-11-20T15:20:13.807Z,98451.94
2022-11-20T15:22:40.654Z,98449.75
2022-11-20T15:25:07.086Z,98439.59
2022-11-20T15:27:33.525Z,98436.59
2022-11-20T15:30:00.055Z,98432.47
2022-11-20T15:32:27.001Z,98443.78
2022-11-20T15:34:53.532Z,98448.78
2022-11-20T15:37:20.400Z,98449.16
2022-11-20T15:39:47.222Z,98450.41
2022-11-20T15:42:14.015Z,98450.16
2022-11-20T15:44:40.778Z,98442.22
2022-11-20T15:47:07.653Z,98437.06
2022-11-20T15:49:35.118Z,98435.56
2022-11-20T15:52:02.576Z,98432.75
2022-11-20T15:54:30.256Z,98438.25
2022-11-20T15:56:56.879Z,98446.66
2022-11-20T15:59:23.711Z,98444.97
2022-11-20T16:01:50.801Z,98448.88
2022-11-20T16:04:17.325Z,98456.81
2022-11-20T16:06:44.459Z,98446.47
2022-11-20T16:09:11.313Z,98458.78
2022-11-20T16:11:38.380Z,98461.84
2022-11-20T16:14:05.110Z,98462.03
2022-11-20T16:16:32.116Z,98454.53
2022-11-20T16:18:58.736Z,98441.47
2022-11-20T16:21:25.622Z,98439.44
2022-11-20T16:23:53.618Z,98448.41
2022-11-20T16:26:20.973Z,98453.53
2022-11-20T16:28:50.581Z,98454.72
2022-11-20T16:31:17.068Z,98455.63
2022-11-20T16:33:43.822Z,98462.69
2022-11-20T16:36:13.802Z,98461.69
2022-11-20T16:38:41.621Z,98456.72
2022-11-20T16:41:09.031Z,98447.03
2022-11-20T16:43:36.828Z,98450.53
2022-11-20T16:46:03.678Z,98446.75
2022-11-20T16:48:30.616Z,98454.53
2022-11-20T16:50:57.691Z,98456.94
2022-11-20T16:53:24.659Z,98460.09
2022-11-20T16:55:51.554Z,98457.81
2022-11-20T16:58:18.770Z,98455.22
2022-11-20T17:00:51.138Z,98457.03
2022-11-20T17:03:18.509Z,98465.94
2022-11-20T17:06:03.644Z,98460.00
2022-11-20T17:08:30.537Z,98462.59
2022-11-20T17:10:57.596Z,98464.22
2022-11-20T17:13:24.651Z,98463.78
2022-11-20T17:15:51.556Z,98469.88
2022-11-20T17:18:18.955Z,98471.63
2022-11-20T17:20:45.448Z,98460.38
2022-11-20T17:23:12.430Z,98463.19
2022-11-20T17:25:39.351Z,98461.16
2022-11-20T17:28:08.844Z,98455.88
2022-11-20T17:30:36.183Z,98457.97
2022-11-20T17:33:04.078Z,98455.38
2022-11-20T17:35:31.107Z,98450.53
2022-11-20T17:37:57.982Z,98448.00
2022-11-20T17:40:27.560Z,98447.59
2022-11-20T17:42:54.799Z,98453.78
2022-11-20T17:45:21.813Z,98441.38
2022-11-20T17:47:48.664Z,98446.75
2022-11-20T17:50:15.612Z,98441.75
2022-11-20T17:52:42.717Z,98455.50
2022-11-20T17:55:09.138Z,98446.84
2022-11-20T17:57:35.629Z,98449.19
2022-11-20T18:00:02.819Z,98452.56
2022-11-20T18:02:30.306Z,98452.56
2022-11-20T18:04:57.205Z,98453.25
2022-11-20T18:07:24.469Z,98453.81
2022-11-20T18:09:51.387Z,98436.06
2022-11-20T18:12:19.312Z,98442.13
2022-11-20T18:14:46.259Z,98435.94
2022-11-20T18:17:13.591Z,98431.56
2022-11-20T18:19:47.948Z,98433.53
2022-11-20T18:22:31.091Z,98428.91
2022-11-20T18:24:58.766Z,98428.38
2022-11-20T18:27:25.598Z,98427.19
2022-11-20T18:29:57.360Z,98431.50
2022-11-20T18:32:24.986Z,98423.41
2022-11-20T18:34:51.988Z,98418.06
2022-11-20T18:37:19.796Z,98411.03
2022-11-20T18:39:47.231Z,98402.81
2022-11-20T18:42:14.592Z,98412.88
2022-11-20T18:44:41.055Z,98406.06
2022-11-20T18:47:14.161Z,98405.16
2022-11-20T18:49:42.568Z,98404.56
2022-11-20T18:52:09.511Z,98405.94
2022-11-20T18:54:36.417Z,98400.50
2022-11-20T18:57:03.617Z,98394.66
2022-11-20T18:59:30.881Z,98400.97
2022-11-20T19:01:58.175Z,98395.44
2022-11-20T19:04:25.538Z,98399.47
2022-11-20T19:06:53.522Z,98389.19
2022-11-20T19:09:20.467Z,98386.56
2022-11-20T19:11:48.049Z,98399.41
2022-11-20T19:14:15.426Z,98395.69
2022-11-20T19:16:42.315Z,98394.47
2022-11-20T19:19:09.292Z,98384.81
2022-11-20T19:21:36.470Z,98386.81
2022-11-20T19:24:03.711Z,98383.91
2022-11-20T19:26:32.845Z,98383.75
2022-11-20T19:29:00.059Z,98386.31
2022-11-20T19:31:26.961Z,98393.00
2022-11-20T19:33:54.646Z,98392.94
2022-11-20T19:36:22.012Z,98389.34
2022-11-20T19:38:50.368Z,98398.09
2022-11-20T19:41:16.913Z,98398.44
2022-11-20T19:43:43.782Z,98401.69
2022-11-20T19:46:14.136Z,98398.81
2022-11-20T19:48:42.097Z,98383.34
2022-11-20T19:51:09.341Z,98390.13
2022-11-20T19:53:36.305Z,98390.06
2022-11-20T19:56:02.861Z,98386.19
2022-11-20T19:58:30.697Z,98385.91
2022-11-20T20:00:58.167Z,98382.66
2022-11-20T20:03:24.738Z,98380.53
2022-11-20T20:05:51.730Z,98387.44
2022-11-20T20:08:18.720Z,98383.81
2022-11-20T20:10:47.137Z,98374.75
2022-11-20T20:13:14.081Z,98380.81
2022-11-20T20:15:40.552Z,98387.06
2022-11-20T20:18:07.466Z,98381.69
2022-11-20T20:20:34.367Z,98383.16
2022-11-20T20:23:01.407Z,98396.94
2022-11-20T20:25:29.358Z,98385.75
2022-11-20T20:27:56.200Z,98389.50
2022-11-20T20:30:22.989Z,98387.06
2022-11-20T20:32:54.810Z,98388.47
2022-11-20T20:35:22.982Z,98385.50
2022-11-20T20:37:49.921Z,98390.59
2022-11-20T20:40:16.831Z,98400.97
2022-11-20T20:42:43.409Z,98405.69
2022-11-20T20:45:11.255Z,98394.75
2022-11-20T20:47:38.247Z,98396.16
2022-11-20T20:50:05.156Z,98399.25
2022-11-20T20:52:31.664Z,98399.19
2022-11-20T20:54:58.428Z,98386.06
2022-11-20T20:57:25.453Z,98389.28
2022-11-20T20:59:52.456Z,98390.59
2022-11-20T21:02:18.878Z,98389.09
2022-11-20T21:04:45.591Z,98386.28
2022-11-20T21:07:12.668Z,98382.03
2022-11-20T21:09:40.542Z,98389.19
2022-11-20T21:12:07.032Z,98385.13
2022-11-20T21:14:34.056Z,98380.41
2022-11-20T21:17:01.117Z,98380.78
2022-11-20T21:19:27.803Z,98374.09
2022-11-20T21:21:54.299Z,98369.78
2022-11-20T21:24:20.834Z,98358.38
2022-11-20T21:26:47.625Z,98360.97
2022-11-20T21:29:16.504Z,98355.69
2022-11-20T21:31:45.508Z,98354.28
2022-11-20T21:34:11.939Z,98358.22
2022-11-20T21:36:38.389Z,98364.88
2022-11-20T21:39:04.743Z,98358.09
2022-11-20T21:41:31.099Z,98361.91
2022-11-20T21:46:44.168Z,98366.34
2022-11-20T21:49:10.763Z,98365.66
2022-11-20T21:51:37.580Z,98367.25
2022-11-20T21:54:03.948Z,98370.75
2022-11-20T21:56:30.961Z,98378.47
2022-11-20T21:58:57.363Z,98376.69
2022-11-20T22:01:23.794Z,98370.63
2022-11-20T22:03:50.423Z,98367.28
2022-11-20T22:06:16.799Z,98369.84
2022-11-20T22:08:43.226Z,98369.19
2022-11-20T22:11:09.874Z,98377.03
2022-11-20T22:13:36.437Z,98384.94
2022-11-20T22:16:02.800Z,98379.03
2022-11-20T22:18:29.180Z,98383.19
2022-11-20T22:20:57.956Z,98369.97
2022-11-20T22:23:24.393Z,98380.56
2022-11-20T22:25:51.075Z,98383.81
2022-11-20T22:28:17.473Z,98382.19
2022-11-20T22:30:44.025Z,98376.75
2022-11-20T22:33:13.562Z,98381.59
2022-11-20T22:35:40.475Z,98381.81
2022-11-20T22:38:06.877Z,98385.22
2022-11-20T22:40:33.408Z,98383.72
2022-11-20T22:42:59.799Z,98381.78
2022-11-20T22:45:26.185Z,98389.38
2022-11-20T22:47:52.661Z,98379.19
2022-11-20T22:50:19.064Z,98381.41
2022-11-20T22:52:45.402Z,98375.94
2022-11-20T22:55:16.115Z,98376.25
2022-11-20T22:57:42.872Z,98379.19
2022-11-20T23:00:09.309Z,98377.91
2022-11-20T23:02:36.235Z,98372.56
2022-11-20T23:05:02.594Z,98365.59
2022-11-20T23:07:29.044Z,98364.09
2022-11-20T23:09:55.711Z,98360.94
2022-11-20T23:12:22.189Z,98369.16
2022-11-20T23:14:48.575Z,98371.22
2022-11-20T23:17:15.158Z,98366.84
2022-11-20T23:19:41.519Z,98374.94
2022-11-20T23:22:07.848Z,98366.84
2022-11-20T23:24:34.274Z,98357.13
2022-11-20T23:27:00.779Z,98355.56
2022-11-20T23:29:27.183Z,98353.88
2022-11-20T23:31:53.865Z,98347.81
2022-11-20T23:34:20.355Z,98348.41
2022-11-20T23:36:46.766Z,98347.63
2022-11-20T23:39:13.224Z,98344.75
2022-11-20T23:41:39.696Z,98346.16
2022-11-20T23:44:06.064Z,98351.81
2022-11-20T23:46:32.447Z,98343.72
2022-11-20T23:48:58.787Z,98342.00
2022-11-20T23:51:25.497Z,98346.59
2022-11-20T23:53:51.902Z,98344.81
2022-11-20T23:56:18.290Z,98348.41
2022-11-20T23:58:44.661Z,98350.13
